• Join FlightAware (Why Join?)
  • Login
  • US Flag 
10:44PM EDT


 

Airport Tracker/Info


-or-


 

Live Flight TrackerFlight Track Log ✈ SWA4021 ✈ 27-May-2014 ✈ KPIT - KBWI

Flight Track Log - Related Links

Times and Time Zones

All times are in EDT time to prevent confusion due to time zone crossing. See the SWA4021 flight status page for this flight to view local times or setup timezone preferences in your user account.

Time Position Orientation Groundspeed Altitude Reporting Facility
EDT Latitude Longitude Course Direction KTS MPH feet Rate Location/Type
11:40AM 40.3925 -80.2742 115° Southeast 274 315 6,400  Level Cleveland Center
11:41AM 40.3131 -80.2406 162° South 295 339 10,500 3,180 Climbing Cleveland Center
11:42AM 40.2258 -80.2008 161° South 342 394 13,000 2,700 Climbing Cleveland Center
11:43AM 40.1297 -80.1589 162° South 364 419 16,200 3,000 Climbing Cleveland Center
11:44AM 40.2710 -79.6046 166° South  Level Estimated
11:44AM 40.0286 -80.1153 162° South 381 438 19,200  Level Cleveland Center
11:45AM 40.2333 -79.4984 115° Southeast  Level Estimated
11:45AM 39.9275 -80.0572 156° South 400 460 21,000  Level Cleveland Center
11:46AM 39.8839 -79.8972 110° East 397 457 22,900 960 Climbing Cleveland Center
11:47AM 39.8519 -79.7628 107° East 393 452 23,000  Climbing Cleveland Center
11:48AM 39.8200 -79.6267 107° East 393 452 23,000  Level Cleveland Center
11:49AM 39.7861 -79.4844 107° East 407 468 23,000  Level Cleveland Center
11:50AM 39.7519 -79.3372 107° East 421 484 23,000  Level Cleveland Center
11:51AM 39.7175 -79.1939 107° East 421 484 23,000  Level Cleveland Center
11:52AM 39.6764 -79.0217 107° East 419 482 23,000  Level Cleveland Center
11:53AM 39.6422 -78.8811 107° East 419 482 23,000  Level Cleveland Center
11:54AM 39.6075 -78.7350 107° East 421 484 23,000 -780 Level Cleveland Center
11:55AM 39.5711 -78.5911 108° East 421 484 21,500 -1,740 Descending Cleveland Center
11:56AM 39.5378 -78.4503 107° East 409 471 19,500 -1,980 Descending Cleveland Center
11:57AM 39.5039 -78.3164 108° East 395 455 17,500 -2,160 Descending Cleveland Center
11:58AM 39.4636 -78.1589 108° East 387 445 15,100 -1,200 Descending Cleveland Center
11:59AM 39.4439 -78.0292 101° East 372 428 15,100  Level Cleveland Center
12:00PM 39.4453 -77.8986 89° East 366 421 15,100  Level Cleveland Center
12:01PM 39.4461 -77.7636 89° East 367 422 15,100 -180 Level Cleveland Center
12:02PM 39.4444 -77.6258 91° East 366 421 14,800 -1,080 Descending Washington Center
12:03PM 39.4444 -77.4997 90° East 360 414 12,900 -1,860 Descending Washington Center
12:04PM 39.4442 -77.3706 90° East 355 409 11,100 -960 Descending Washington Center
12:05PM 39.4667 -77.2333 78° East 353 406 11,000 -540 Descending Potomac TRACON
12:06PM 39.4833 -77.1167 79° East 321 369 10,100 -1,200 Descending Potomac TRACON
12:07PM 39.4833 -77.0000 90° East 306 352 8,600 -1,440 Descending Potomac TRACON
12:08PM 39.5000 -76.9000 78° East 304 350 7,300 -1,380 Descending Potomac TRACON
12:09PM 39.4833 -76.8000 102° East 307 353 5,900 -1,200 Descending Potomac TRACON
12:10PM 39.4667 -76.6833 100° East 288 331 5,000 -600 Descending Potomac TRACON
12:11PM 39.4333 -76.6167 123° Southeast 286 329 4,800 -480 Descending Potomac TRACON
12:12PM 39.3667 -76.5500 142° Southeast 285 328 4,100 -420 Descending Potomac TRACON
12:13PM 39.3167 -76.4833 134° Southeast 285 328 4,000 -360 Descending Potomac TRACON
12:14PM 39.2500 -76.4667 169° South 269 310 3,500 -540 Descending Potomac TRACON
12:15PM 39.1833 -76.4833 191° South 241 277 3,000 -600 Descending Potomac TRACON
12:16PM 39.1500 -76.5333 229° Southwest 195 224 2,400 -600 Descending Potomac TRACON
12:17PM 39.1167 -76.5833 229° Southwest 166 191 1,900 -720 Descending Potomac TRACON
12:18PM 39.1333 -76.6333 293° West 141 162 1,000 -900 Descending Potomac TRACON